sensor_id;sensor_type;location;lat;lon;timestamp;temperature;humidity
13172;DHT22;6651;53.200;10.432;2023-09-19T00:02:04;16.90;99.90
13172;DHT22;6651;53.200;10.432;2023-09-19T00:04:34;16.90;99.90
13172;DHT22;6651;53.200;10.432;2023-09-19T00:07:00;16.90;99.90
13172;DHT22;6651;53.200;10.432;2023-09-19T00:09:28;16.90;99.90
13172;DHT22;6651;53.200;10.432;2023-09-19T00:11:53;16.80;99.90
13172;DHT22;6651;53.200;10.432;2023-09-19T00:14:19;16.90;99.90
13172;DHT22;6651;53.200;10.432;2023-09-19T00:16:45;16.90;99.90
13172;DHT22;6651;53.200;10.432;2023-09-19T00:19:12;16.90;99.90
13172;DHT22;6651;53.200;10.432;2023-09-19T00:21:39;16.90;99.90
13172;DHT22;6651;53.200;10.432;2023-09-19T00:24:06;16.80;99.90
13172;DHT22;6651;53.200;10.432;2023-09-19T00:26:32;16.80;99.90
13172;DHT22;6651;53.200;10.432;2023-09-19T00:28:59;16.70;99.90
13172;DHT22;6651;53.200;10.432;2023-09-19T00:31:30;16.60;99.90
13172;DHT22;6651;53.200;10.432;2023-09-19T00:33:56;16.60;99.90
13172;DHT22;6651;53.200;10.432;2023-09-19T00:36:27;16.60;99.90
13172;DHT22;6651;53.200;10.432;2023-09-19T00:38:54;16.60;99.90
13172;DHT22;6651;53.200;10.432;2023-09-19T00:41:20;16.50;99.90
13172;DHT22;6651;53.200;10.432;2023-09-19T00:43:46;16.50;99.90
13172;DHT22;6651;53.200;10.432;2023-09-19T00:46:16;16.50;99.90
13172;DHT22;6651;53.200;10.432;2023-09-19T00:48:42;16.60;99.90
13172;DHT22;6651;53.200;10.432;2023-09-19T00:51:12;16.60;99.90
13172;DHT22;6651;53.200;10.432;2023-09-19T00:53:39;16.60;99.90
13172;DHT22;6651;53.200;10.432;2023-09-19T00:56:07;16.60;99.90
13172;DHT22;6651;53.200;10.432;2023-09-19T00:58:34;16.70;99.90
13172;DHT22;6651;53.200;10.432;2023-09-19T01:01:01;16.70;99.90
13172;DHT22;6651;53.200;10.432;2023-09-19T01:03:27;16.70;99.90
13172;DHT22;6651;53.200;10.432;2023-09-19T01:05:53;16.70;99.90
13172;DHT22;6651;53.200;10.432;2023-09-19T01:08:18;16.70;99.90
13172;DHT22;6651;53.200;10.432;2023-09-19T01:10:55;16.80;99.90
13172;DHT22;6651;53.200;10.432;2023-09-19T01:13:35;16.80;99.90
13172;DHT22;6651;53.200;10.432;2023-09-19T01:21:18;16.80;99.90
13172;DHT22;6651;53.200;10.432;2023-09-19T01:26:55;16.80;99.90
13172;DHT22;6651;53.200;10.432;2023-09-19T01:29:42;16.80;99.90
13172;DHT22;6651;53.200;10.432;2023-09-19T01:32:11;16.80;99.90
13172;DHT22;6651;53.200;10.432;2023-09-19T01:34:52;16.70;99.90
13172;DHT22;6651;53.200;10.432;2023-09-19T01:37:20;16.70;99.90
13172;DHT22;6651;53.200;10.432;2023-09-19T01:39:53;16.70;99.90
13172;DHT22;6651;53.200;10.432;2023-09-19T01:42:23;16.70;99.90
13172;DHT22;6651;53.200;10.432;2023-09-19T01:47:48;16.70;99.90
13172;DHT22;6651;53.200;10.432;2023-09-19T01:50:30;16.70;99.90
13172;DHT22;6651;53.200;10.432;2023-09-19T01:53:22;16.70;99.90
13172;DHT22;6651;53.200;10.432;2023-09-19T01:55:48;16.80;99.90
13172;DHT22;6651;53.200;10.432;2023-09-19T01:58:31;16.80;99.90
13172;DHT22;6651;53.200;10.432;2023-09-19T02:01:00;16.80;99.90
13172;DHT22;6651;53.200;10.432;2023-09-19T02:03:26;16.80;99.90
13172;DHT22;6651;53.200;10.432;2023-09-19T02:05:54;16.80;99.90
13172;DHT22;6651;53.200;10.432;2023-09-19T02:08:21;16.80;99.90
13172;DHT22;6651;53.200;10.432;2023-09-19T02:10:50;16.80;99.90
13172;DHT22;6651;53.200;10.432;2023-09-19T02:13:19;16.80;99.90
13172;DHT22;6651;53.200;10.432;2023-09-19T02:15:46;16.80;99.90
13172;DHT22;6651;53.200;10.432;2023-09-19T02:18:14;16.80;99.90
13172;DHT22;6651;53.200;10.432;2023-09-19T02:20:40;16.80;99.90
13172;DHT22;6651;53.200;10.432;2023-09-19T02:23:06;16.80;99.90
13172;DHT22;6651;53.200;10.432;2023-09-19T02:25:33;16.70;99.90
13172;DHT22;6651;53.200;10.432;2023-09-19T02:27:59;16.70;99.90
13172;DHT22;6651;53.200;10.432;2023-09-19T02:30:26;16.70;99.90
13172;DHT22;6651;53.200;10.432;2023-09-19T02:32:52;16.70;99.90
13172;DHT22;6651;53.200;10.432;2023-09-19T02:35:18;16.60;99.90
13172;DHT22;6651;53.200;10.432;2023-09-19T02:37:47;16.60;99.90
13172;DHT22;6651;53.200;10.432;2023-09-19T02:40:13;16.60;99.90
13172;DHT22;6651;53.200;10.432;2023-09-19T02:42:47;16.60;99.90
13172;DHT22;6651;53.200;10.432;2023-09-19T02:45:17;16.60;99.90
13172;DHT22;6651;53.200;10.432;2023-09-19T02:47:44;16.60;99.90
13172;DHT22;6651;53.200;10.432;2023-09-19T02:50:10;16.60;99.90
13172;DHT22;6651;53.200;10.432;2023-09-19T02:52:36;16.50;99.90
13172;DHT22;6651;53.200;10.432;2023-09-19T02:55:02;16.60;99.90
13172;DHT22;6651;53.200;10.432;2023-09-19T02:57:30;16.50;99.90
13172;DHT22;6651;53.200;10.432;2023-09-19T02:59:58;16.50;99.90
13172;DHT22;6651;53.200;10.432;2023-09-19T03:02:26;16.60;99.90
13172;DHT22;6651;53.200;10.432;2023-09-19T03:04:53;16.60;99.90
13172;DHT22;6651;53.200;10.432;2023-09-19T03:07:19;16.60;99.90
13172;DHT22;6651;53.200;10.432;2023-09-19T03:09:44;16.60;99.90
13172;DHT22;6651;53.200;10.432;2023-09-19T03:12:11;16.60;99.90
13172;DHT22;6651;53.200;10.432;2023-09-19T03:14:36;16.60;99.90
13172;DHT22;6651;53.200;10.432;2023-09-19T03:17:02;16.60;99.90
13172;DHT22;6651;53.200;10.432;2023-09-19T03:19:31;16.50;99.90
13172;DHT22;6651;53.200;10.432;2023-09-19T03:21:59;16.50;99.90
13172;DHT22;6651;53.200;10.432;2023-09-19T03:24:25;16.40;99.90
13172;DHT22;6651;53.200;10.432;2023-09-19T03:26:51;16.40;99.90
13172;DHT22;6651;53.200;10.432;2023-09-19T03:29:17;16.40;99.90
13172;DHT22;6651;53.200;10.432;2023-09-19T03:31:43;16.40;99.90
13172;DHT22;6651;53.200;10.432;2023-09-19T03:34:09;16.40;99.90
13172;DHT22;6651;53.200;10.432;2023-09-19T03:36:35;16.40;99.90
13172;DHT22;6651;53.200;10.432;2023-09-19T03:39:01;16.40;99.90
13172;DHT22;6651;53.200;10.432;2023-09-19T03:41:31;16.40;99.90
13172;DHT22;6651;53.200;10.432;2023-09-19T03:43:56;16.40;99.90
13172;DHT22;6651;53.200;10.432;2023-09-19T03:46:22;16.40;99.90
13172;DHT22;6651;53.200;10.432;2023-09-19T03:48:48;16.30;99.90
13172;DHT22;6651;53.200;10.432;2023-09-19T03:51:13;16.30;99.90
13172;DHT22;6651;53.200;10.432;2023-09-19T03:53:39;16.30;99.90
13172;DHT22;6651;53.200;10.432;2023-09-19T03:56:04;16.30;99.90
13172;DHT22;6651;53.200;10.432;2023-09-19T03:58:30;16.20;99.90
13172;DHT22;6651;53.200;10.432;2023-09-19T04:00:56;16.20;99.90
13172;DHT22;6651;53.200;10.432;2023-09-19T04:03:23;16.20;99.90
13172;DHT22;6651;53.200;10.432;2023-09-19T04:05:50;16.20;99.90
13172;DHT22;6651;53.200;10.432;2023-09-19T04:08:15;16.00;99.90
13172;DHT22;6651;53.200;10.432;2023-09-19T04:10:42;16.00;99.90
13172;DHT22;6651;53.200;10.432;2023-09-19T04:13:09;16.10;99.90
13172;DHT22;6651;53.200;10.432;2023-09-19T04:15:34;16.10;99.90
13172;DHT22;6651;53.200;10.432;2023-09-19T04:18:00;16.10;99.90
13172;DHT22;6651;53.200;10.432;2023-09-19T04:20:26;16.00;99.90
13172;DHT22;6651;53.200;10.432;2023-09-19T04:22:51;16.00;99.90
13172;DHT22;6651;53.200;10.432;2023-09-19T04:25:17;16.00;99.90
13172;DHT22;6651;53.200;10.432;2023-09-19T04:27:44;16.10;99.90
13172;DHT22;6651;53.200;10.432;2023-09-19T04:30:10;16.10;99.90
13172;DHT22;6651;53.200;10.432;2023-09-19T04:32:40;16.10;99.90
13172;DHT22;6651;53.200;10.432;2023-09-19T04:35:07;16.10;99.90
13172;DHT22;6651;53.200;10.432;2023-09-19T04:37:42;16.00;99.90
13172;DHT22;6651;53.200;10.432;2023-09-19T04:40:09;16.00;99.90
13172;DHT22;6651;53.200;10.432;2023-09-19T04:42:41;15.90;99.90
13172;DHT22;6651;53.200;10.432;2023-09-19T04:45:07;15.90;99.90
13172;DHT22;6651;53.200;10.432;2023-09-19T04:47:35;15.90;99.90
13172;DHT22;6651;53.200;10.432;2023-09-19T04:50:01;15.90;99.90
13172;DHT22;6651;53.200;10.432;2023-09-19T04:52:27;15.90;99.90
13172;DHT22;6651;53.200;10.432;2023-09-19T04:54:56;15.90;99.90
13172;DHT22;6651;53.200;10.432;2023-09-19T04:57:21;15.90;99.90
13172;DHT22;6651;53.200;10.432;2023-09-19T04:59:48;15.80;99.90
13172;DHT22;6651;53.200;10.432;2023-09-19T05:02:13;15.80;99.90
13172;DHT22;6651;53.200;10.432;2023-09-19T05:04:39;15.80;99.90
13172;DHT22;6651;53.200;10.432;2023-09-19T05:07:04;15.70;99.90
13172;DHT22;6651;53.200;10.432;2023-09-19T05:09:30;15.70;99.90
13172;DHT22;6651;53.200;10.432;2023-09-19T05:11:59;15.70;99.90
13172;DHT22;6651;53.200;10.432;2023-09-19T05:14:25;15.70;99.90
13172;DHT22;6651;53.200;10.432;2023-09-19T05:16:50;15.70;99.90
13172;DHT22;6651;53.200;10.432;2023-09-19T05:19:16;15.60;99.90
13172;DHT22;6651;53.200;10.432;2023-09-19T05:21:42;15.60;99.90
13172;DHT22;6651;53.200;10.432;2023-09-19T05:24:08;15.50;99.90
13172;DHT22;6651;53.200;10.432;2023-09-19T05:26:33;15.50;99.90
13172;DHT22;6651;53.200;10.432;2023-09-19T05:28:59;15.50;99.90
13172;DHT22;6651;53.200;10.432;2023-09-19T05:31:26;15.40;99.90
13172;DHT22;6651;53.200;10.432;2023-09-19T05:33:53;15.40;99.90
13172;DHT22;6651;53.200;10.432;2023-09-19T05:36:20;15.40;99.90
13172;DHT22;6651;53.200;10.432;2023-09-19T05:38:46;15.40;99.90
13172;DHT22;6651;53.200;10.432;2023-09-19T05:41:15;15.40;99.90
13172;DHT22;6651;53.200;10.432;2023-09-19T05:43:41;15.40;99.90
13172;DHT22;6651;53.200;10.432;2023-09-19T05:46:07;15.40;99.90
13172;DHT22;6651;53.200;10.432;2023-09-19T05:48:33;15.30;99.90
13172;DHT22;6651;53.200;10.432;2023-09-19T05:50:59;15.40;99.90
13172;DHT22;6651;53.200;10.432;2023-09-19T05:53:27;15.30;99.90
13172;DHT22;6651;53.200;10.432;2023-09-19T05:55:54;15.30;99.90
13172;DHT22;6651;53.200;10.432;2023-09-19T05:58:20;15.30;99.90
13172;DHT22;6651;53.200;10.432;2023-09-19T06:00:46;15.30;99.90
13172;DHT22;6651;53.200;10.432;2023-09-19T06:03:14;15.30;99.90
13172;DHT22;6651;53.200;10.432;2023-09-19T06:05:40;15.40;99.90
13172;DHT22;6651;53.200;10.432;2023-09-19T06:08:06;15.30;99.90
13172;DHT22;6651;53.200;10.432;2023-09-19T06:10:33;15.40;99.90
13172;DHT22;6651;53.200;10.432;2023-09-19T06:13:01;15.40;99.90
13172;DHT22;6651;53.200;10.432;2023-09-19T06:15:29;15.40;99.90
13172;DHT22;6651;53.200;10.432;2023-09-19T06:17:58;15.50;99.90
13172;DHT22;6651;53.200;10.432;2023-09-19T06:20:25;15.50;99.90
13172;DHT22;6651;53.200;10.432;2023-09-19T06:22:52;15.50;99.90
13172;DHT22;6651;53.200;10.432;2023-09-19T06:25:18;15.60;99.90
13172;DHT22;6651;53.200;10.432;2023-09-19T06:27:52;15.70;99.90
13172;DHT22;6651;53.200;10.432;2023-09-19T06:30:19;15.70;99.90
13172;DHT22;6651;53.200;10.432;2023-09-19T06:32:45;15.80;99.90
13172;DHT22;6651;53.200;10.432;2023-09-19T06:35:12;15.90;99.90
13172;DHT22;6651;53.200;10.432;2023-09-19T06:37:39;16.00;99.90
13172;DHT22;6651;53.200;10.432;2023-09-19T06:40:09;16.10;99.90
13172;DHT22;6651;53.200;10.432;2023-09-19T06:42:49;16.20;99.90
13172;DHT22;6651;53.200;10.432;2023-09-19T06:45:15;16.30;99.90
13172;DHT22;6651;53.200;10.432;2023-09-19T06:47:49;16.40;99.90
13172;DHT22;6651;53.200;10.432;2023-09-19T06:50:19;16.60;99.90
13172;DHT22;6651;53.200;10.432;2023-09-19T06:52:46;16.60;99.90
13172;DHT22;6651;53.200;10.432;2023-09-19T06:55:16;16.60;99.90
13172;DHT22;6651;53.200;10.432;2023-09-19T06:57:42;16.70;99.90
13172;DHT22;6651;53.200;10.432;2023-09-19T07:00:12;16.80;99.90
13172;DHT22;6651;53.200;10.432;2023-09-19T07:02:44;16.80;99.90
13172;DHT22;6651;53.200;10.432;2023-09-19T07:05:10;16.90;99.90
13172;DHT22;6651;53.200;10.432;2023-09-19T07:07:35;17.00;99.90
13172;DHT22;6651;53.200;10.432;2023-09-19T07:10:02;17.10;99.90
13172;DHT22;6651;53.200;10.432;2023-09-19T07:12:31;17.30;99.90
13172;DHT22;6651;53.200;10.432;2023-09-19T07:14:58;17.40;99.90
13172;DHT22;6651;53.200;10.432;2023-09-19T07:17:23;17.40;99.90
13172;DHT22;6651;53.200;10.432;2023-09-19T07:19:49;17.30;99.90
13172;DHT22;6651;53.200;10.432;2023-09-19T07:22:16;17.20;99.90
13172;DHT22;6651;53.200;10.432;2023-09-19T07:24:41;17.20;99.90
13172;DHT22;6651;53.200;10.432;2023-09-19T07:27:07;17.20;99.90
13172;DHT22;6651;53.200;10.432;2023-09-19T07:29:32;17.10;99.90
13172;DHT22;6651;53.200;10.432;2023-09-19T07:31:58;17.00;99.90
13172;DHT22;6651;53.200;10.432;2023-09-19T07:34:24;16.90;99.90
13172;DHT22;6651;53.200;10.432;2023-09-19T07:36:49;16.90;99.90
13172;DHT22;6651;53.200;10.432;2023-09-19T07:39:15;16.90;99.90
13172;DHT22;6651;53.200;10.432;2023-09-19T07:41:41;16.90;99.90
13172;DHT22;6651;53.200;10.432;2023-09-19T07:44:07;16.90;99.90
13172;DHT22;6651;53.200;10.432;2023-09-19T07:46:35;16.90;99.90
13172;DHT22;6651;53.200;10.432;2023-09-19T07:49:00;17.10;99.90
13172;DHT22;6651;53.200;10.432;2023-09-19T07:51:26;17.30;99.90
13172;DHT22;6651;53.200;10.432;2023-09-19T07:53:52;17.40;99.90
13172;DHT22;6651;53.200;10.432;2023-09-19T07:56:18;17.70;99.90
13172;DHT22;6651;53.200;10.432;2023-09-19T07:58:46;18.00;99.90
13172;DHT22;6651;53.200;10.432;2023-09-19T08:01:12;18.10;99.90
13172;DHT22;6651;53.200;10.432;2023-09-19T08:03:39;18.20;99.90
13172;DHT22;6651;53.200;10.432;2023-09-19T08:06:06;18.10;99.90
13172;DHT22;6651;53.200;10.432;2023-09-19T08:08:33;18.00;99.90
13172;DHT22;6651;53.200;10.432;2023-09-19T08:11:03;17.90;99.90
13172;DHT22;6651;53.200;10.432;2023-09-19T08:13:40;17.70;99.90
13172;DHT22;6651;53.200;10.432;2023-09-19T08:16:09;17.60;99.90
13172;DHT22;6651;53.200;10.432;2023-09-19T08:18:36;17.70;99.90
13172;DHT22;6651;53.200;10.432;2023-09-19T08:21:03;18.00;99.90
13172;DHT22;6651;53.200;10.432;2023-09-19T08:23:28;18.20;99.90
13172;DHT22;6651;53.200;10.432;2023-09-19T08:25:57;18.30;99.90
13172;DHT22;6651;53.200;10.432;2023-09-19T08:28:23;18.40;99.90
13172;DHT22;6651;53.200;10.432;2023-09-19T08:30:50;18.30;99.90
13172;DHT22;6651;53.200;10.432;2023-09-19T08:33:16;18.30;99.90
13172;DHT22;6651;53.200;10.432;2023-09-19T08:35:42;18.20;99.90
13172;DHT22;6651;53.200;10.432;2023-09-19T08:38:09;18.20;99.90
13172;DHT22;6651;53.200;10.432;2023-09-19T08:40:39;18.20;99.90
13172;DHT22;6651;53.200;10.432;2023-09-19T08:43:06;18.30;99.90
13172;DHT22;6651;53.200;10.432;2023-09-19T08:45:33;18.20;99.90
13172;DHT22;6651;53.200;10.432;2023-09-19T08:51:07;18.20;99.90
13172;DHT22;6651;53.200;10.432;2023-09-19T08:53:50;18.20;99.90
13172;DHT22;6651;53.200;10.432;2023-09-19T08:56:18;18.20;99.90
13172;DHT22;6651;53.200;10.432;2023-09-19T08:58:57;18.30;99.90
13172;DHT22;6651;53.200;10.432;2023-09-19T09:01:24;18.40;99.90
13172;DHT22;6651;53.200;10.432;2023-09-19T09:03:53;18.50;99.90
13172;DHT22;6651;53.200;10.432;2023-09-19T09:06:20;18.60;99.90
13172;DHT22;6651;53.200;10.432;2023-09-19T09:08:46;18.80;99.90
13172;DHT22;6651;53.200;10.432;2023-09-19T09:11:13;18.90;99.90
13172;DHT22;6651;53.200;10.432;2023-09-19T09:13:40;19.10;99.90
13172;DHT22;6651;53.200;10.432;2023-09-19T09:16:07;19.10;99.90
13172;DHT22;6651;53.200;10.432;2023-09-19T09:18:34;19.10;99.90
13172;DHT22;6651;53.200;10.432;2023-09-19T09:20:59;19.10;99.90
13172;DHT22;6651;53.200;10.432;2023-09-19T09:23:27;19.10;99.90
13172;DHT22;6651;53.200;10.432;2023-09-19T09:25:55;19.00;99.90
13172;DHT22;6651;53.200;10.432;2023-09-19T09:28:27;19.00;99.90
13172;DHT22;6651;53.200;10.432;2023-09-19T09:30:54;18.90;99.90
13172;DHT22;6651;53.200;10.432;2023-09-19T09:33:21;19.00;99.90
13172;DHT22;6651;53.200;10.432;2023-09-19T09:35:54;19.10;99.90
13172;DHT22;6651;53.200;10.432;2023-09-19T09:38:23;19.40;99.90
13172;DHT22;6651;53.200;10.432;2023-09-19T09:40:59;19.50;99.90
13172;DHT22;6651;53.200;10.432;2023-09-19T09:43:33;19.70;99.90
13172;DHT22;6651;53.200;10.432;2023-09-19T09:46:07;19.80;99.90
13172;DHT22;6651;53.200;10.432;2023-09-19T09:51:41;19.60;99.90
13172;DHT22;6651;53.200;10.432;2023-09-19T09:54:24;19.70;99.90
13172;DHT22;6651;53.200;10.432;2023-09-19T09:57:00;19.70;99.90
13172;DHT22;6651;53.200;10.432;2023-09-19T09:59:58;19.70;99.90
13172;DHT22;6651;53.200;10.432;2023-09-19T10:02:29;19.90;99.90
13172;DHT22;6651;53.200;10.432;2023-09-19T10:04:58;19.90;99.90
13172;DHT22;6651;53.200;10.432;2023-09-19T10:07:33;19.70;99.90
13172;DHT22;6651;53.200;10.432;2023-09-19T10:10:02;19.80;99.90
13172;DHT22;6651;53.200;10.432;2023-09-19T10:12:47;19.90;99.90
13172;DHT22;6651;53.200;10.432;2023-09-19T10:15:17;20.00;99.90
13172;DHT22;6651;53.200;10.432;2023-09-19T10:17:46;20.10;99.90
13172;DHT22;6651;53.200;10.432;2023-09-19T10:20:14;20.00;99.90
13172;DHT22;6651;53.200;10.432;2023-09-19T10:23:01;20.10;99.90
13172;DHT22;6651;53.200;10.432;2023-09-19T10:25:29;20.30;99.90
13172;DHT22;6651;53.200;10.432;2023-09-19T10:27:57;20.50;99.90
13172;DHT22;6651;53.200;10.432;2023-09-19T10:30:25;20.30;99.90
13172;DHT22;6651;53.200;10.432;2023-09-19T10:33:03;20.20;99.90
13172;DHT22;6651;53.200;10.432;2023-09-19T10:35:29;20.30;99.90
13172;DHT22;6651;53.200;10.432;2023-09-19T10:37:59;20.30;99.90
13172;DHT22;6651;53.200;10.432;2023-09-19T10:40:27;20.20;99.90
13172;DHT22;6651;53.200;10.432;2023-09-19T10:43:05;20.10;99.90
13172;DHT22;6651;53.200;10.432;2023-09-19T10:45:33;20.00;99.90
13172;DHT22;6651;53.200;10.432;2023-09-19T10:48:00;19.90;99.90
13172;DHT22;6651;53.200;10.432;2023-09-19T10:50:29;19.70;99.90
13172;DHT22;6651;53.200;10.432;2023-09-19T10:53:03;19.60;99.90
13172;DHT22;6651;53.200;10.432;2023-09-19T10:55:31;19.50;99.90
13172;DHT22;6651;53.200;10.432;2023-09-19T10:57:59;19.50;99.90
13172;DHT22;6651;53.200;10.432;2023-09-19T11:00:26;19.70;99.90
13172;DHT22;6651;53.200;10.432;2023-09-19T11:05:40;19.90;99.90
13172;DHT22;6651;53.200;10.432;2023-09-19T11:08:09;19.90;99.90
13172;DHT22;6651;53.200;10.432;2023-09-19T11:10:50;19.90;99.90
13172;DHT22;6651;53.200;10.432;2023-09-19T11:13:26;19.80;99.90
13172;DHT22;6651;53.200;10.432;2023-09-19T11:27:12;19.60;99.90
13172;DHT22;6651;53.200;10.432;2023-09-19T11:29:39;19.50;99.90
13172;DHT22;6651;53.200;10.432;2023-09-19T11:32:05;19.50;99.90
13172;DHT22;6651;53.200;10.432;2023-09-19T11:34:40;19.50;99.90
13172;DHT22;6651;53.200;10.432;2023-09-19T11:39:37;19.40;99.90
13172;DHT22;6651;53.200;10.432;2023-09-19T11:42:45;19.40;99.90
13172;DHT22;6651;53.200;10.432;2023-09-19T11:48:18;19.40;99.90
13172;DHT22;6651;53.200;10.432;2023-09-19T11:50:45;19.40;99.90
13172;DHT22;6651;53.200;10.432;2023-09-19T11:53:12;19.40;99.90
13172;DHT22;6651;53.200;10.432;2023-09-19T11:55:39;19.50;99.90
13172;DHT22;6651;53.200;10.432;2023-09-19T11:58:09;19.60;99.90
13172;DHT22;6651;53.200;10.432;2023-09-19T12:00:38;19.70;99.90
13172;DHT22;6651;53.200;10.432;2023-09-19T12:03:08;19.80;99.90
13172;DHT22;6651;53.200;10.432;2023-09-19T12:05:35;20.00;99.90
13172;DHT22;6651;53.200;10.432;2023-09-19T12:08:05;20.00;99.90
13172;DHT22;6651;53.200;10.432;2023-09-19T12:10:55;20.10;99.90
13172;DHT22;6651;53.200;10.432;2023-09-19T12:13:21;20.10;99.90
13172;DHT22;6651;53.200;10.432;2023-09-19T12:15:47;20.10;99.90
13172;DHT22;6651;53.200;10.432;2023-09-19T12:18:29;20.10;99.90
13172;DHT22;6651;53.200;10.432;2023-09-19T12:20:55;20.20;99.90
13172;DHT22;6651;53.200;10.432;2023-09-19T12:23:23;20.30;99.90
13172;DHT22;6651;53.200;10.432;2023-09-19T12:25:48;20.20;99.90
13172;DHT22;6651;53.200;10.432;2023-09-19T12:28:18;20.20;99.90
13172;DHT22;6651;53.200;10.432;2023-09-19T12:30:44;20.20;99.90
13172;DHT22;6651;53.200;10.432;2023-09-19T12:33:20;20.20;99.90
13172;DHT22;6651;53.200;10.432;2023-09-19T12:35:47;20.00;99.90
13172;DHT22;6651;53.200;10.432;2023-09-19T12:38:25;20.00;99.90
13172;DHT22;6651;53.200;10.432;2023-09-19T12:40:55;20.00;99.90
13172;DHT22;6651;53.200;10.432;2023-09-19T12:43:22;20.10;99.90
13172;DHT22;6651;53.200;10.432;2023-09-19T12:45:48;20.10;99.90
13172;DHT22;6651;53.200;10.432;2023-09-19T12:48:24;20.20;99.90
13172;DHT22;6651;53.200;10.432;2023-09-19T12:51:07;20.30;99.90
13172;DHT22;6651;53.200;10.432;2023-09-19T12:53:43;20.30;99.90
13172;DHT22;6651;53.200;10.432;2023-09-19T12:56:15;20.30;99.90
13172;DHT22;6651;53.200;10.432;2023-09-19T12:58:55;20.20;99.90
13172;DHT22;6651;53.200;10.432;2023-09-19T13:01:22;20.20;99.90
13172;DHT22;6651;53.200;10.432;2023-09-19T13:06:48;20.00;99.90
13172;DHT22;6651;53.200;10.432;2023-09-19T13:13:33;20.20;99.90
13172;DHT22;6651;53.200;10.432;2023-09-19T13:16:00;20.20;99.90
13172;DHT22;6651;53.200;10.432;2023-09-19T13:18:27;20.10;99.90
13172;DHT22;6651;53.200;10.432;2023-09-19T13:21:12;20.10;99.90
13172;DHT22;6651;53.200;10.432;2023-09-19T13:24:01;19.90;99.90
13172;DHT22;6651;53.200;10.432;2023-09-19T13:26:33;19.80;99.90
13172;DHT22;6651;53.200;10.432;2023-09-19T13:28:59;19.80;99.90
13172;DHT22;6651;53.200;10.432;2023-09-19T13:31:25;19.70;99.90
13172;DHT22;6651;53.200;10.432;2023-09-19T13:33:50;19.70;99.90
13172;DHT22;6651;53.200;10.432;2023-09-19T13:36:17;19.70;99.90
13172;DHT22;6651;53.200;10.432;2023-09-19T13:38:44;19.80;99.90
13172;DHT22;6651;53.200;10.432;2023-09-19T13:41:10;19.90;99.90
13172;DHT22;6651;53.200;10.432;2023-09-19T13:43:37;20.00;99.90
13172;DHT22;6651;53.200;10.432;2023-09-19T13:46:04;20.10;99.90
13172;DHT22;6651;53.200;10.432;2023-09-19T13:48:30;19.90;99.90
13172;DHT22;6651;53.200;10.432;2023-09-19T13:50:56;19.80;99.90
13172;DHT22;6651;53.200;10.432;2023-09-19T13:53:22;19.70;99.90
13172;DHT22;6651;53.200;10.432;2023-09-19T13:55:48;19.80;99.90
13172;DHT22;6651;53.200;10.432;2023-09-19T13:58:16;19.70;99.90
13172;DHT22;6651;53.200;10.432;2023-09-19T14:00:42;19.80;99.90
13172;DHT22;6651;53.200;10.432;2023-09-19T14:03:08;19.90;99.90
13172;DHT22;6651;53.200;10.432;2023-09-19T14:05:36;20.00;99.90
13172;DHT22;6651;53.200;10.432;2023-09-19T14:08:01;20.00;99.90
13172;DHT22;6651;53.200;10.432;2023-09-19T14:10:28;20.10;99.90
13172;DHT22;6651;53.200;10.432;2023-09-19T14:12:57;20.10;99.90
13172;DHT22;6651;53.200;10.432;2023-09-19T14:15:26;20.10;99.90
13172;DHT22;6651;53.200;10.432;2023-09-19T14:17:56;19.90;99.90
13172;DHT22;6651;53.200;10.432;2023-09-19T14:20:22;19.90;99.90
13172;DHT22;6651;53.200;10.432;2023-09-19T14:22:48;20.00;99.90
13172;DHT22;6651;53.200;10.432;2023-09-19T14:25:14;19.90;99.90
13172;DHT22;6651;53.200;10.432;2023-09-19T14:27:40;19.90;99.90
13172;DHT22;6651;53.200;10.432;2023-09-19T14:30:07;19.90;99.90
13172;DHT22;6651;53.200;10.432;2023-09-19T14:32:33;19.90;99.90
13172;DHT22;6651;53.200;10.432;2023-09-19T14:34:59;19.90;99.90
13172;DHT22;6651;53.200;10.432;2023-09-19T14:37:24;20.00;99.90
13172;DHT22;6651;53.200;10.432;2023-09-19T14:39:50;20.00;99.90
13172;DHT22;6651;53.200;10.432;2023-09-19T14:42:16;20.00;99.90
13172;DHT22;6651;53.200;10.432;2023-09-19T14:44:43;20.00;99.90
13172;DHT22;6651;53.200;10.432;2023-09-19T14:47:09;19.90;99.90
13172;DHT22;6651;53.200;10.432;2023-09-19T14:49:35;19.70;99.90
13172;DHT22;6651;53.200;10.432;2023-09-19T14:52:04;19.80;99.90
13172;DHT22;6651;53.200;10.432;2023-09-19T14:54:30;19.70;99.90
13172;DHT22;6651;53.200;10.432;2023-09-19T14:56:56;19.80;99.90
13172;DHT22;6651;53.200;10.432;2023-09-19T14:59:32;19.80;99.90
13172;DHT22;6651;53.200;10.432;2023-09-19T15:01:58;19.90;99.90
13172;DHT22;6651;53.200;10.432;2023-09-19T15:04:24;19.90;99.90
13172;DHT22;6651;53.200;10.432;2023-09-19T15:06:50;19.90;99.90
13172;DHT22;6651;53.200;10.432;2023-09-19T15:09:16;19.80;99.90
13172;DHT22;6651;53.200;10.432;2023-09-19T15:11:44;19.70;99.90
13172;DHT22;6651;53.200;10.432;2023-09-19T15:14:10;19.60;99.90
13172;DHT22;6651;53.200;10.432;2023-09-19T15:16:35;19.60;99.90
13172;DHT22;6651;53.200;10.432;2023-09-19T15:19:01;19.60;99.90
13172;DHT22;6651;53.200;10.432;2023-09-19T15:21:26;19.60;99.90
13172;DHT22;6651;53.200;10.432;2023-09-19T15:23:52;19.70;99.90
13172;DHT22;6651;53.200;10.432;2023-09-19T15:26:18;19.70;99.90
13172;DHT22;6651;53.200;10.432;2023-09-19T15:28:47;19.80;99.90
13172;DHT22;6651;53.200;10.432;2023-09-19T15:31:13;19.70;99.90
13172;DHT22;6651;53.200;10.432;2023-09-19T15:33:39;19.70;99.90
13172;DHT22;6651;53.200;10.432;2023-09-19T15:36:06;19.70;99.90
13172;DHT22;6651;53.200;10.432;2023-09-19T15:38:57;19.70;99.90
13172;DHT22;6651;53.200;10.432;2023-09-19T15:41:31;19.60;99.90
13172;DHT22;6651;53.200;10.432;2023-09-19T15:43:58;19.70;99.90
13172;DHT22;6651;53.200;10.432;2023-09-19T15:46:27;19.70;99.90
13172;DHT22;6651;53.200;10.432;2023-09-19T15:48:53;19.70;99.90
13172;DHT22;6651;53.200;10.432;2023-09-19T15:51:19;19.70;99.90
13172;DHT22;6651;53.200;10.432;2023-09-19T15:53:46;19.70;99.90
13172;DHT22;6651;53.200;10.432;2023-09-19T15:56:14;19.60;99.90
13172;DHT22;6651;53.200;10.432;2023-09-19T15:58:47;19.60;99.90
13172;DHT22;6651;53.200;10.432;2023-09-19T16:01:13;19.40;99.90
13172;DHT22;6651;53.200;10.432;2023-09-19T16:03:44;19.30;99.90
13172;DHT22;6651;53.200;10.432;2023-09-19T16:06:17;19.20;99.90
13172;DHT22;6651;53.200;10.432;2023-09-19T16:08:48;19.20;99.90
13172;DHT22;6651;53.200;10.432;2023-09-19T16:11:15;19.20;99.90
13172;DHT22;6651;53.200;10.432;2023-09-19T16:13:41;19.20;99.90
13172;DHT22;6651;53.200;10.432;2023-09-19T16:16:12;19.20;99.90
13172;DHT22;6651;53.200;10.432;2023-09-19T16:18:39;19.20;99.90
13172;DHT22;6651;53.200;10.432;2023-09-19T16:21:06;19.20;99.90
13172;DHT22;6651;53.200;10.432;2023-09-19T16:23:36;19.20;99.90